Time;durP1;ratioP1;P1;durP2;ratioP2;P2;SDS_P1;SDS_P2;PMS_P1;PMS_P2;Temp;Humidity;BMP_temperature;BMP_pressure;BME280_temperature;BME280_humidity;BME280_pressure;Samples;Min_cycle;Max_cycle;Signal;HPM_P1;HPM_P2
2022/04/27 00:00:36;;;;;;;10.47;8.33;;;;;;;6.11;88.45;102261.66;4973989;28;20801;-43
2022/04/27 00:03:06;;;;;;;9.57;8.17;;;;;;;6.08;88.48;102272.53;4974605;28;20435;-43
2022/04/27 00:05:35;;;;;;;9.63;8.50;;;;;;;6.06;88.72;102271.81;4974550;28;20437;-47
2022/04/27 00:08:03;;;;;;;9.63;8.80;;;;;;;6.05;88.32;102265.69;4974483;28;20435;-46
2022/04/27 00:10:30;;;;;;;8.87;8.10;;;;;;;6.05;88.79;102264.84;4974187;28;20439;-43
2022/04/27 00:12:58;;;;;;;9.53;8.70;;;;;;;6.05;88.70;102270.97;4973697;28;20474;-47
2022/04/27 00:15:27;;;;;;;14.00;8.93;;;;;;;6.04;88.03;102273.75;4974305;28;20441;-44
2022/04/27 00:17:55;;;;;;;9.87;8.93;;;;;;;6.01;89.05;102276.66;4974247;28;20470;-48
2022/04/27 00:20:23;;;;;;;10.03;8.87;;;;;;;5.97;88.95;102281.34;4974217;28;20808;-45
2022/04/27 00:22:52;;;;;;;9.50;8.60;;;;;;;5.96;89.27;102282.34;4973578;28;20467;-48
2022/04/27 00:25:19;;;;;;;9.73;8.93;;;;;;;5.95;89.34;102277.16;4973868;28;20438;-45
2022/04/27 00:27:47;;;;;;;9.80;8.80;;;;;;;5.95;88.57;102279.81;4974050;28;20447;-44
2022/04/27 00:30:14;;;;;;;11.23;10.13;;;;;;;5.91;88.49;102276.56;4973671;28;20438;-44
2022/04/27 00:32:42;;;;;;;9.77;8.90;;;;;;;5.90;88.87;102276.72;4973475;28;20463;-48
2022/04/27 00:35:10;;;;;;;14.93;10.43;;;;;;;5.90;88.95;102282.00;4974094;28;20786;-47
2022/04/27 00:37:37;;;;;;;10.10;9.00;;;;;;;5.90;88.88;102277.56;4973959;28;20549;-44
2022/04/27 00:40:07;;;;;;;10.13;8.83;;;;;;;5.84;88.85;102279.84;4973887;28;20812;-44
2022/04/27 00:42:35;;;;;;;10.03;9.03;;;;;;;5.81;88.93;102280.94;4973095;28;20492;-43
2022/04/27 00:45:03;;;;;;;11.37;8.77;;;;;;;5.77;88.92;102276.03;4973067;28;20439;-45
2022/04/27 00:47:31;;;;;;;9.00;8.10;;;;;;;5.73;88.56;102279.91;4954356;28;20458;-43
2022/04/27 00:50:02;;;;;;;8.83;8.00;;;;;;;5.70;88.08;102267.78;4954490;29;20442;-45
2022/04/27 00:52:30;;;;;;;10.33;9.33;;;;;;;5.67;88.51;102273.34;4938574;28;21000;-43
2022/04/27 00:54:58;;;;;;;10.27;9.40;;;;;;;5.62;88.87;102272.84;4935273;29;20814;-47
2022/04/27 00:57:27;;;;;;;10.27;8.50;;;;;;;5.60;88.99;102274.78;4934803;29;20826;-44
2022/04/27 00:59:55;;;;;;;9.37;8.67;;;;;;;5.61;89.26;102273.84;4934966;29;20950;-44
2022/04/27 01:02:23;;;;;;;9.67;8.50;;;;;;;5.60;89.43;102282.72;4934364;28;20483;-47
2022/04/27 01:04:51;;;;;;;13.27;9.90;;;;;;;5.57;89.10;102275.06;4934879;29;20918;-45
2022/04/27 01:07:18;;;;;;;14.10;9.30;;;;;;;5.59;89.38;102273.94;4935070;29;20490;-47
2022/04/27 01:09:46;;;;;;;9.37;8.50;;;;;;;5.55;89.65;102280.44;4935331;29;20448;-43
2022/04/27 01:12:16;;;;;;;10.30;8.57;;;;;;;5.55;89.56;102277.00;4934324;28;20469;-45
2022/04/27 01:14:47;;;;;;;9.93;8.83;;;;;;;5.54;89.59;102280.59;4934991;29;20433;-46
2022/04/27 01:17:15;;;;;;;9.73;8.83;;;;;;;5.56;89.86;102279.50;4934655;29;20465;-46
2022/04/27 01:19:43;;;;;;;15.10;11.13;;;;;;;5.58;90.02;102280.19;4935005;29;20437;-45
2022/04/27 01:22:12;;;;;;;12.13;10.67;;;;;;;5.55;89.95;102287.56;4934174;28;20476;-48
2022/04/27 01:24:40;;;;;;;10.13;8.40;;;;;;;5.55;90.01;102288.38;4934709;29;20437;-46
2022/04/27 01:27:08;;;;;;;13.70;9.40;;;;;;;5.55;88.81;102288.38;4934623;29;20472;-43
2022/04/27 01:29:35;;;;;;;9.70;8.97;;;;;;;5.53;88.57;102285.03;4934686;29;20784;-44
2022/04/27 01:32:04;;;;;;;11.60;9.17;;;;;;;5.54;89.46;102283.25;4933921;28;20468;-45
2022/04/27 01:34:32;;;;;;;9.30;8.03;;;;;;;5.52;89.26;102293.13;4935139;29;20479;-44
2022/04/27 01:37:59;;;;;;;9.17;7.67;;;;;;;5.51;88.82;102294.91;4934728;29;20896;-44
2022/04/27 01:39:49;;;;;;;10.50;9.50;;;;;;;5.51;89.63;102296.72;4934723;29;20436;-44
2022/04/27 01:42:17;;;;;;;8.07;7.47;;;;;;;5.50;90.42;102295.03;4933781;28;20480;-44
2022/04/27 01:44:44;;;;;;;10.80;8.73;;;;;;;5.47;90.69;102296.13;4934363;29;20938;-44
2022/04/27 01:47:12;;;;;;;9.97;8.17;;;;;;;5.49;90.99;102296.00;4943435;28;20831;-44
2022/04/27 01:49:39;;;;;;;9.40;8.53;;;;;;;5.48;90.14;102297.81;4953744;28;20442;-49
2022/04/27 01:54:54;;;;;;;8.93;8.03;;;;;;;5.44;90.72;102300.81;4953784;28;20431;-43
2022/04/27 01:57:22;;;;;;;15.47;8.37;;;;;;;5.43;90.33;102294.72;4953528;28;21001;-46
2022/04/27 01:59:49;;;;;;;12.70;8.87;;;;;;;5.42;90.97;102300.13;4953665;28;20436;-43
2022/04/27 02:02:17;;;;;;;9.73;8.83;;;;;;;5.43;90.80;102300.00;4952759;28;20475;-44
2022/04/27 02:04:45;;;;;;;9.83;8.60;;;;;;;5.41;90.82;102303.72;4953563;28;20436;-47
2022/04/27 02:07:12;;;;;;;10.00;8.50;;;;;;;5.42;90.93;102302.75;4953437;28;21005;-44
2022/04/27 02:09:40;;;;;;;10.90;9.90;;;;;;;5.38;91.07;102310.09;4954481;28;20450;-43
2022/04/27 02:12:09;;;;;;;9.53;8.70;;;;;;;5.37;91.52;102312.88;4956693;28;20466;-43
2022/04/27 02:14:37;;;;;;;10.33;9.23;;;;;;;5.36;91.38;102316.50;4957291;28;20808;-44
2022/04/27 02:17:05;;;;;;;11.33;10.20;;;;;;;5.33;91.61;102314.09;4957143;28;20829;-43
2022/04/27 02:19:33;;;;;;;13.53;11.17;;;;;;;5.28;92.18;102316.28;4957054;28;20432;-46
2022/04/27 02:22:02;;;;;;;10.50;8.30;;;;;;;5.27;91.92;102315.44;4956113;28;20488;-44
2022/04/27 02:24:29;;;;;;;10.43;8.53;;;;;;;5.25;91.88;102322.66;4957072;28;20442;-44
2022/04/27 02:26:57;;;;;;;11.67;8.90;;;;;;;5.25;92.57;102319.16;4956979;28;20505;-43
2022/04/27 02:29:26;;;;;;;10.50;8.60;;;;;;;5.24;92.17;102317.47;4956943;28;20534;-45
2022/04/27 02:31:54;;;;;;;10.27;9.30;;;;;;;5.24;92.12;102320.97;4956268;28;20822;-45
2022/04/27 02:34:21;;;;;;;14.60;9.47;;;;;;;5.24;91.67;102317.47;4956630;28;20436;-44
2022/04/27 02:36:49;;;;;;;9.53;8.60;;;;;;;5.23;91.67;102316.63;4956611;28;20467;-44
2022/04/27 02:39:16;;;;;;;10.27;9.30;;;;;;;5.25;91.76;102325.31;4956875;28;20446;-45
2022/04/27 02:41:44;;;;;;;9.60;8.73;;;;;;;5.20;92.43;102316.88;4956148;28;20478;-46
2022/04/27 02:44:12;;;;;;;9.67;8.67;;;;;;;5.21;93.03;102323.88;4956477;28;20467;-47
2022/04/27 02:46:41;;;;;;;14.10;10.80;;;;;;;5.26;93.03;102318.19;4950811;28;20830;-45
2022/04/27 02:51:54;;;;;;;10.30;9.30;;;;;;;5.23;91.67;102327.22;4956185;28;20480;-45
2022/04/27 02:54:23;;;;;;;20.27;10.10;;;;;;;5.19;91.58;102322.31;4956508;28;20523;-47
2022/04/27 02:56:51;;;;;;;13.30;10.13;;;;;;;5.20;91.54;102322.16;4956246;28;20466;-45
2022/04/27 02:59:18;;;;;;;13.03;9.90;;;;;;;5.14;91.25;102325.31;4956246;28;20440;-43
2022/04/27 03:01:48;;;;;;;11.80;10.70;;;;;;;5.16;91.98;102322.56;4955710;28;20467;-45
2022/04/27 03:04:16;;;;;;;13.27;9.60;;;;;;;5.15;92.45;102334.09;4956567;28;20475;-44
2022/04/27 03:06:44;;;;;;;11.73;10.33;;;;;;;5.14;92.51;102335.88;4956222;28;20459;-46
2022/04/27 03:09:11;;;;;;;10.87;9.97;;;;;;;5.12;92.22;102332.53;4956269;28;20468;-43
2022/04/27 03:11:39;;;;;;;13.03;9.80;;;;;;;5.12;92.52;102335.19;4955682;28;20548;-43
2022/04/27 03:14:06;;;;;;;8.60;7.90;;;;;;;5.10;91.97;102331.81;4955918;28;20431;-43
2022/04/27 03:16:34;;;;;;;12.43;9.70;;;;;;;5.03;90.88;102338.56;4956124;28;20465;-44
2022/04/27 03:19:03;;;;;;;13.73;8.70;;;;;;;4.98;90.81;102330.16;4956257;28;20436;-47
2022/04/27 03:21:32;;;;;;;10.00;9.13;;;;;;;4.89;90.29;102320.31;4955153;28;20545;-43
2022/04/27 03:24:00;;;;;;;11.10;9.97;;;;;;;4.83;90.32;102331.38;4955947;28;20487;-46
2022/04/27 03:26:28;;;;;;;11.80;9.63;;;;;;;4.76;90.04;102336.28;4955703;28;20478;-47
2022/04/27 03:28:56;;;;;;;9.87;8.93;;;;;;;4.70;89.66;102335.91;4955871;28;20428;-43
2022/04/27 03:31:23;;;;;;;11.03;9.40;;;;;;;4.64;89.65;102333.75;4955420;28;20467;-43
2022/04/27 03:33:51;;;;;;;10.10;8.93;;;;;;;4.56;89.51;102331.72;4955893;28;20467;-43
2022/04/27 03:36:20;;;;;;;12.20;11.00;;;;;;;4.50;89.37;102334.84;4955649;28;20464;-44
2022/04/27 03:38:48;;;;;;;11.43;10.40;;;;;;;4.44;89.56;102336.16;4955674;28;20823;-43
2022/04/27 03:41:19;;;;;;;11.73;9.63;;;;;;;4.38;89.42;102336.63;4954750;28;21007;-45
2022/04/27 03:43:47;;;;;;;10.07;9.17;;;;;;;4.32;89.39;102337.09;4955563;28;20507;-44
2022/04/27 03:46:15;;;;;;;12.30;9.07;;;;;;;4.28;89.75;102345.34;4953051;28;20463;-45
2022/04/27 03:49:02;;;;;;;14.53;11.27;;;;;;;4.22;89.39;102348.47;4951965;29;20440;-43
2022/04/27 03:51:31;;;;;;;12.73;11.63;;;;;;;4.17;89.41;102350.63;4954628;28;20471;-46
2022/04/27 03:53:59;;;;;;;12.43;11.33;;;;;;;4.12;89.31;102345.66;4955509;28;20463;-47
2022/04/27 03:56:26;;;;;;;16.20;13.00;;;;;;;4.09;89.53;102340.63;4955388;28;20466;-47
2022/04/27 03:58:54;;;;;;;16.00;11.37;;;;;;;4.08;89.64;102346.88;4955581;28;20438;-44
2022/04/27 04:01:22;;;;;;;13.53;12.07;;;;;;;4.04;89.94;102348.06;4954761;28;20466;-48
2022/04/27 04:03:50;;;;;;;12.23;11.13;;;;;;;4.04;89.90;102352.47;4955055;28;21015;-46
2022/04/27 04:06:19;;;;;;;15.00;13.60;;;;;;;4.01;89.79;102358.84;4954820;28;20467;-46
2022/04/27 04:08:48;;;;;;;23.40;12.10;;;;;;;4.06;90.03;102353.22;4954972;28;20463;-43
2022/04/27 04:11:16;;;;;;;11.77;10.67;;;;;;;4.11;90.56;102374.84;4954577;28;20486;-43
2022/04/27 04:13:43;;;;;;;12.20;11.07;;;;;;;4.16;90.23;102367.41;4954909;28;20945;-47
2022/04/27 04:16:11;;;;;;;14.53;12.73;;;;;;;4.16;89.88;102375.31;4955013;28;20537;-44
2022/04/27 04:18:38;;;;;;;13.10;12.03;;;;;;;4.21;89.84;102383.75;4954960;28;20854;-44
2022/04/27 04:21:06;;;;;;;11.93;10.97;;;;;;;4.25;90.11;102379.91;4954390;28;20467;-45
2022/04/27 04:23:33;;;;;;;11.90;10.87;;;;;;;4.31;89.78;102384.72;4954865;28;20840;-48
2022/04/27 04:28:48;;;;;;;11.63;10.20;;;;;;;4.58;90.72;102401.13;4954785;28;20442;-47
2022/04/27 04:31:17;;;;;;;15.27;13.10;;;;;;;4.90;91.08;102393.34;4969669;23;20821;-51
2022/04/27 04:33:45;;;;;;;13.43;12.23;;;;;;;5.17;90.75;102393.81;4946258;28;20523;-46
2022/04/27 04:36:13;;;;;;;15.63;11.40;;;;;;;5.48;89.91;102395.72;4954815;28;20440;-46
2022/04/27 04:38:40;;;;;;;11.40;10.40;;;;;;;6.03;90.53;102391.25;4954614;28;20432;-46
2022/04/27 04:41:09;;;;;;;11.93;10.63;;;;;;;6.52;90.72;102395.91;4958054;28;20470;-48
2022/04/27 04:43:37;;;;;;;15.03;11.90;;;;;;;6.81;86.69;102396.09;4973598;28;20471;-47
2022/04/27 04:46:04;;;;;;;11.03;10.03;;;;;;;7.20;86.32;102401.41;4973552;28;20453;-47
2022/04/27 04:48:32;;;;;;;10.30;9.43;;;;;;;7.61;84.17;102395.13;4973802;28;20501;-46
2022/04/27 04:50:59;;;;;;;11.37;10.17;;;;;;;8.07;81.98;102394.44;4973225;28;20466;-47
2022/04/27 04:53:27;;;;;;;11.73;10.33;;;;;;;8.79;82.59;102397.44;4973708;28;20427;-48
2022/04/27 04:55:54;;;;;;;10.60;8.63;;;;;;;9.63;81.17;102398.16;4973548;28;20442;-52
2022/04/27 04:58:23;;;;;;;10.00;9.10;;;;;;;10.37;76.68;102388.03;4973544;28;20464;-51
2022/04/27 05:00:51;;;;;;;10.87;9.77;;;;;;;11.10;72.54;102392.00;4972864;28;20481;-45
2022/04/27 05:03:19;;;;;;;13.67;9.47;;;;;;;11.70;70.53;102399.91;4973634;28;20824;-47
2022/04/27 05:05:47;;;;;;;10.40;9.37;;;;;;;12.32;69.17;102401.13;4973500;28;20466;-49
2022/04/27 05:08:15;;;;;;;10.27;9.27;;;;;;;13.02;67.25;102410.19;4973289;28;20435;-49
2022/04/27 05:10:43;;;;;;;10.77;9.77;;;;;;;13.44;62.99;102415.25;4972332;28;20458;-44
2022/04/27 05:13:10;;;;;;;10.60;9.70;;;;;;;14.00;61.04;102415.97;4973373;28;20435;-49
2022/04/27 05:15:39;;;;;;;10.20;9.20;;;;;;;14.49;58.70;102417.25;4973297;28;20924;-48
2022/04/27 05:18:07;;;;;;;10.40;9.50;;;;;;;14.95;56.68;102432.25;4973246;28;20427;-50
2022/04/27 05:20:37;;;;;;;8.23;7.73;;;;;;;15.44;54.64;102427.13;4972856;28;20497;-50
2022/04/27 05:23:05;;;;;;;7.60;6.87;;;;;;;15.64;47.47;102429.25;4972947;28;20447;-49
2022/04/27 05:25:34;;;;;;;9.07;7.10;;;;;;;15.72;49.60;102439.91;4973176;28;20852;-50
2022/04/27 05:28:02;;;;;;;6.47;5.83;;;;;;;16.09;46.91;102446.94;4973212;28;20434;-50
2022/04/27 05:33:28;;;;;;;6.97;6.27;;;;;;;16.33;44.35;102446.56;4913435;29;20460;-48
2022/04/27 05:35:55;;;;;;;7.10;6.40;;;;;;;16.14;47.33;102445.34;4944788;28;20435;-50
2022/04/27 05:38:23;;;;;;;7.37;6.70;;;;;;;16.27;49.36;102445.47;4953981;28;20446;-49
2022/04/27 05:40:50;;;;;;;7.83;6.73;;;;;;;16.54;47.08;102450.13;4953228;28;20459;-48
2022/04/27 05:43:18;;;;;;;8.53;7.43;;;;;;;16.64;44.94;102449.75;4954204;28;20933;-47
2022/04/27 05:45:46;;;;;;;7.30;6.60;;;;;;;16.02;44.00;102453.09;4950285;28;20475;-52
2022/04/27 05:48:14;;;;;;;8.53;6.73;;;;;;;15.42;45.66;102456.06;4938318;29;20942;-48
2022/04/27 05:50:43;;;;;;;7.50;6.80;;;;;;;15.67;45.22;102451.25;4938811;28;20456;-50
2022/04/27 05:53:15;;;;;;;7.20;5.97;;;;;;;15.95;45.15;102454.03;4957862;29;20435;-53
2022/04/27 05:55:43;;;;;;;8.63;6.33;;;;;;;16.03;45.95;102454.78;4957548;29;20518;-48
2022/04/27 05:58:11;;;;;;;6.87;6.37;;;;;;;16.53;44.41;102450.25;4957553;29;20941;-53
2022/04/27 06:00:39;;;;;;;9.67;6.20;;;;;;;16.46;45.69;102463.66;4956556;28;20454;-48
2022/04/27 06:03:07;;;;;;;6.27;5.50;;;;;;;16.16;43.48;102456.72;4957452;29;20439;-52
2022/04/27 06:05:35;;;;;;;7.13;5.40;;;;;;;16.07;44.10;102460.56;4957137;29;20482;-49
2022/04/27 06:08:06;;;;;;;7.83;6.93;;;;;;;16.36;45.56;102468.56;4957441;29;20817;-48
2022/04/27 06:10:34;;;;;;;8.73;6.50;;;;;;;16.51;43.86;102471.16;4957027;29;20441;-53
2022/04/27 06:13:01;;;;;;;9.23;6.03;;;;;;;16.73;42.72;102472.00;4937559;29;20452;-50
2022/04/27 06:15:29;;;;;;;7.37;5.60;;;;;;;16.76;41.95;102476.97;4938140;29;20794;-48
2022/04/27 06:17:57;;;;;;;7.27;5.50;;;;;;;16.44;42.14;102481.03;4938110;29;20440;-50
2022/04/27 06:20:25;;;;;;;7.00;5.10;;;;;;;16.52;43.30;102476.34;4937753;29;20451;-49
2022/04/27 06:22:53;;;;;;;6.47;5.13;;;;;;;16.37;44.79;102474.75;4937501;28;20467;-49
2022/04/27 06:25:22;;;;;;;9.20;4.60;;;;;;;16.50;43.73;102480.25;4937859;29;20815;-51
2022/04/27 06:27:50;;;;;;;5.23;4.70;;;;;;;16.68;42.71;102485.22;4937752;29;20498;-51
2022/04/27 06:30:17;;;;;;;7.43;5.40;;;;;;;16.38;43.81;102482.66;4937943;29;20446;-48
2022/04/27 06:32:45;;;;;;;5.43;4.90;;;;;;;16.11;44.35;102487.94;4954217;28;20466;-47
2022/04/27 06:35:13;;;;;;;4.83;4.23;;;;;;;16.21;44.42;102481.25;4956808;29;20435;-52
2022/04/27 06:37:41;;;;;;;7.40;5.60;;;;;;;16.31;44.46;102495.19;4956865;29;20446;-51
2022/04/27 06:40:10;;;;;;;7.57;4.93;;;;;;;16.32;44.34;102493.34;4956626;29;20518;-51
2022/04/27 06:42:42;;;;;;;6.07;5.00;;;;;;;16.48;43.75;102496.63;4956065;28;20474;-50
2022/04/27 06:45:11;;;;;;;6.03;4.80;;;;;;;16.29;44.24;102497.25;4957111;28;20479;-48
2022/04/27 06:47:38;;;;;;;5.40;4.70;;;;;;;16.27;43.42;102501.19;4967864;28;20437;-50
2022/04/27 06:50:08;;;;;;;7.63;4.87;;;;;;;16.22;44.04;102495.53;4975692;28;20967;-50
2022/04/27 06:52:41;;;;;;;6.43;5.30;;;;;;;15.85;44.02;102494.72;4959243;28;20477;-49
2022/04/27 06:55:09;;;;;;;5.13;4.63;;;;;;;15.95;45.40;102495.22;4955971;28;20411;-49
2022/04/27 06:57:38;;;;;;;6.77;5.23;;;;;;;15.38;45.10;102496.97;4956443;28;20833;-48
2022/04/27 07:00:08;;;;;;;5.93;4.60;;;;;;;15.56;45.98;102492.03;4956518;28;20797;-46
2022/04/27 07:02:36;;;;;;;5.67;4.10;;;;;;;15.29;44.08;102506.13;4955738;28;20475;-49
2022/04/27 07:05:06;;;;;;;4.97;4.47;;;;;;;15.48;43.79;102497.53;4955156;29;20478;-49
2022/04/27 07:07:33;;;;;;;7.57;3.63;;;;;;;15.90;44.89;102505.72;4956013;28;20450;-46
2022/04/27 07:10:01;;;;;;;4.73;4.17;;;;;;;15.95;43.59;102503.28;4956271;28;20442;-49
2022/04/27 07:12:29;;;;;;;6.13;3.97;;;;;;;15.84;42.59;102497.56;4955565;28;20471;-48
2022/04/27 07:14:58;;;;;;;4.67;4.20;;;;;;;15.88;43.41;102502.41;4956131;28;20427;-50
2022/04/27 07:17:25;;;;;;;5.63;3.97;;;;;;;15.30;44.35;102505.09;4956037;28;20816;-50
2022/04/27 07:19:53;;;;;;;5.67;4.97;;;;;;;15.57;45.65;102511.69;4955824;28;20951;-48
2022/04/27 07:22:21;;;;;;;5.00;4.60;;;;;;;15.55;44.22;102513.75;4955175;28;20486;-52
2022/04/27 07:24:49;;;;;;;6.33;4.83;;;;;;;15.41;44.71;102513.53;4955917;28;20478;-49
2022/04/27 07:27:17;;;;;;;5.90;4.57;;;;;;;15.50;44.60;102512.44;4955899;28;20439;-48
2022/04/27 07:29:45;;;;;;;10.23;4.87;;;;;;;15.56;42.86;102505.47;4955819;28;20453;-50
2022/04/27 07:32:14;;;;;;;5.90;4.30;;;;;;;15.43;44.15;102511.50;4955137;28;20482;-50
2022/04/27 07:34:42;;;;;;;5.77;4.53;;;;;;;15.18;44.57;102510.09;4955551;28;20446;-49
2022/04/27 07:37:10;;;;;;;5.07;4.50;;;;;;;15.04;44.13;102516.28;4955820;28;20439;-51
2022/04/27 07:39:37;;;;;;;4.27;3.87;;;;;;;14.68;44.99;102504.53;4955803;28;20435;-50
2022/04/27 07:42:06;;;;;;;7.10;4.97;;;;;;;14.54;46.24;102518.75;4954879;28;20478;-50
2022/04/27 07:44:34;;;;;;;7.30;4.47;;;;;;;13.95;47.32;102509.53;4955542;28;20435;-52
2022/04/27 07:47:01;;;;;;;5.20;4.57;;;;;;;13.89;47.30;102515.59;4946765;28;20436;-50
2022/04/27 07:49:30;;;;;;;6.23;4.43;;;;;;;14.15;44.86;102518.81;4955288;29;20431;-47
2022/04/27 07:51:59;;;;;;;5.27;4.77;;;;;;;13.88;46.89;102520.13;4954607;28;20522;-46
2022/04/27 07:54:26;;;;;;;6.63;4.70;;;;;;;13.11;49.00;102534.28;4955449;28;20991;-47
2022/04/27 07:56:54;;;;;;;5.63;5.20;;;;;;;12.88;48.97;102534.09;4955325;28;20442;-51
2022/04/27 07:59:21;;;;;;;5.40;4.90;;;;;;;13.19;48.87;102532.44;4955179;28;20435;-48
2022/04/27 08:01:49;;;;;;;6.20;5.63;;;;;;;13.29;49.46;102525.00;4954660;28;20483;-49
2022/04/27 08:04:17;;;;;;;7.30;5.40;;;;;;;13.42;49.58;102534.38;4955262;28;20523;-50
2022/04/27 08:06:47;;;;;;;13.13;5.70;;;;;;;13.39;50.12;102530.19;4954396;28;20480;-48
2022/04/27 08:09:14;;;;;;;5.90;5.30;;;;;;;13.51;48.17;102528.81;4954988;28;20813;-50
2022/04/27 08:11:42;;;;;;;6.40;5.30;;;;;;;13.60;49.69;102535.81;4954426;28;20965;-47
2022/04/27 08:14:09;;;;;;;6.60;5.00;;;;;;;14.09;48.06;102517.69;4954996;28;20440;-48
2022/04/27 08:16:37;;;;;;;8.10;5.67;;;;;;;14.59;46.05;102519.88;4955115;28;20516;-50
2022/04/27 08:19:05;;;;;;;8.50;5.80;;;;;;;14.54;47.56;102524.97;4955201;28;20432;-50
2022/04/27 08:21:32;;;;;;;6.90;5.50;;;;;;;14.29;47.21;102526.94;4954176;28;20479;-44
2022/04/27 08:24:06;;;;;;;9.17;6.37;;;;;;;14.31;48.03;102526.75;4954907;28;20459;-46
2022/04/27 08:26:34;;;;;;;6.90;5.30;;;;;;;14.80;47.13;102528.09;4954684;28;20480;-47
2022/04/27 08:29:02;;;;;;;5.77;5.37;;;;;;;14.91;44.08;102524.97;4954942;28;20432;-44
2022/04/27 08:31:29;;;;;;;5.70;5.10;;;;;;;14.37;44.88;102526.91;4953984;28;20475;-49
2022/04/27 08:33:57;;;;;;;6.47;5.13;;;;;;;14.45;46.80;102533.25;4954684;28;20436;-52
2022/04/27 08:36:25;;;;;;;5.83;4.60;;;;;;;14.26;46.42;102523.75;4954830;28;20436;-49
2022/04/27 08:38:57;;;;;;;6.07;4.90;;;;;;;14.87;46.64;102534.38;4954554;28;20535;-48
2022/04/27 08:41:28;;;;;;;8.47;6.20;;;;;;;15.48;44.65;102537.84;4953954;28;20815;-48
2022/04/27 08:43:56;;;;;;;7.20;4.90;;;;;;;15.28;44.35;102544.78;4954708;28;20443;-45
2022/04/27 08:46:26;;;;;;;6.33;5.37;;;;;;;14.83;44.59;102541.16;4950960;28;20480;-50
2022/04/27 08:48:54;;;;;;;7.40;5.20;;;;;;;14.47;44.74;102542.78;4949594;29;20432;-52
2022/04/27 08:51:21;;;;;;;5.57;5.27;;;;;;;13.95;48.05;102558.63;4953687;28;20825;-47
2022/04/27 08:53:50;;;;;;;6.83;5.23;;;;;;;13.93;47.49;102546.41;4954729;28;20798;-52
2022/04/27 08:56:17;;;;;;;6.37;5.83;;;;;;;13.76;49.70;102546.50;4954678;28;20538;-49
2022/04/27 08:58:47;;;;;;;6.33;5.73;;;;;;;14.19;47.51;102553.16;4954389;28;20439;-46
2022/04/27 09:01:14;;;;;;;7.53;5.67;;;;;;;14.82;45.41;102546.69;4953590;28;20471;-47
2022/04/27 09:03:44;;;;;;;5.80;5.30;;;;;;;15.33;45.01;102553.09;4954246;28;20436;-51
2022/04/27 09:06:15;;;;;;;7.20;6.70;;;;;;;15.22;45.04;102558.94;4953986;28;20475;-49
2022/04/27 09:08:44;;;;;;;7.87;6.80;;;;;;;15.01;47.32;102551.56;4954490;28;20436;-48
2022/04/27 09:11:17;;;;;;;11.87;6.67;;;;;;;15.25;46.32;102555.88;4953795;28;20494;-50
2022/04/27 09:13:55;;;;;;;8.17;6.53;;;;;;;15.64;45.82;102547.59;4954414;28;20428;-47
2022/04/27 09:16:25;;;;;;;7.17;6.27;;;;;;;15.95;44.63;102561.66;4953929;28;20443;-48
2022/04/27 09:21:58;;;;;;;6.80;5.90;;;;;;;15.90;43.80;102556.00;4953450;28;20468;-45
2022/04/27 09:24:26;;;;;;;7.97;6.03;;;;;;;15.21;44.68;102558.09;4953919;28;20490;-48
2022/04/27 09:27:03;;;;;;;7.07;6.20;;;;;;;15.00;46.34;102562.50;4953716;28;20486;-49
2022/04/27 09:29:33;;;;;;;6.20;5.40;;;;;;;14.99;46.51;102547.41;4954062;29;20506;-48
2022/04/27 09:32:03;;;;;;;10.03;6.63;;;;;;;15.31;44.54;102560.53;4953089;28;20543;-50
2022/04/27 09:34:44;;;;;;;8.37;5.00;;;;;;;15.30;45.28;102550.78;4953943;28;20435;-48
2022/04/27 09:37:14;;;;;;;8.70;5.40;;;;;;;15.09;45.44;102564.94;4953883;28;20452;-45
2022/04/27 09:39:43;;;;;;;7.60;6.03;;;;;;;14.63;45.33;102563.31;4953755;28;20440;-48
2022/04/27 09:42:12;;;;;;;6.47;6.00;;;;;;;15.34;45.65;102562.84;4953048;28;20468;-46
2022/04/27 09:44:41;;;;;;;6.77;5.33;;;;;;;16.00;43.05;102559.25;4953793;28;20961;-49
2022/04/27 09:47:12;;;;;;;7.60;5.57;;;;;;;16.34;42.68;102562.13;4944465;28;20480;-48
2022/04/27 09:49:43;;;;;;;8.40;5.40;;;;;;;16.09;42.59;102562.66;4953684;28;20436;-47
2022/04/27 09:52:15;;;;;;;9.30;5.70;;;;;;;15.89;43.57;102565.09;4953090;28;20539;-49
2022/04/27 09:54:44;;;;;;;9.83;5.37;;;;;;;15.99;44.07;102563.78;4953554;28;20436;-44
2022/04/27 09:57:16;;;;;;;6.47;5.90;;;;;;;15.93;45.21;102566.41;4953481;28;20440;-48
2022/04/27 09:59:46;;;;;;;8.97;6.17;;;;;;;15.66;45.55;102580.50;4953673;28;20446;-52
2022/04/27 10:02:23;;;;;;;6.93;6.33;;;;;;;15.53;46.21;102578.47;4952816;28;20472;-52
2022/04/27 10:04:53;;;;;;;17.53;7.70;;;;;;;15.38;45.96;102574.91;4953756;28;20782;-50
2022/04/27 10:07:22;;;;;;;7.63;6.90;;;;;;;15.91;46.48;102579.22;4953656;28;20486;-46
2022/04/27 10:09:50;;;;;;;6.77;5.70;;;;;;;16.59;43.33;102571.56;4953639;28;20442;-49
2022/04/27 10:12:19;;;;;;;9.10;5.50;;;;;;;16.41;42.44;102570.28;4952811;28;20479;-52
2022/04/27 10:14:48;;;;;;;6.60;6.00;;;;;;;16.18;43.36;102567.75;4953475;28;20428;-50
2022/04/27 10:17:16;;;;;;;6.63;6.10;;;;;;;15.79;42.67;102568.09;4953646;28;20427;-47
2022/04/27 10:19:48;;;;;;;6.40;5.80;;;;;;;16.10;42.94;102561.66;4953463;28;20450;-50
2022/04/27 10:22:26;;;;;;;5.80;5.30;;;;;;;15.76;42.87;102571.16;4952669;28;20844;-46
2022/04/27 10:24:55;;;;;;;7.00;6.37;;;;;;;16.40;43.27;102566.75;4953392;28;20434;-50
2022/04/27 10:27:26;;;;;;;6.13;5.60;;;;;;;15.92;43.50;102576.31;4953154;28;20481;-50
2022/04/27 10:30:00;;;;;;;8.00;6.07;;;;;;;15.38;44.81;102569.53;4953631;28;20799;-49
2022/04/27 10:32:49;;;;;;;6.70;6.10;;;;;;;14.87;47.94;102577.38;4956155;28;20583;-50
2022/04/27 10:35:22;;;;;;;7.40;6.70;;;;;;;14.40;48.66;102574.88;4953896;28;20447;-47
2022/04/27 10:37:53;;;;;;;6.63;5.97;;;;;;;14.46;49.32;102575.16;4956718;28;20798;-50
2022/04/27 10:40:30;;;;;;;8.60;6.00;;;;;;;14.59;48.73;102570.03;4956816;28;20432;-50
2022/04/27 10:43:10;;;;;;;4.87;4.47;;;;;;;15.04;45.46;102571.88;4956265;28;20996;-46
2022/04/27 10:45:40;;;;;;;5.83;5.13;;;;;;;14.69;45.95;102571.50;4956086;28;20431;-48
2022/04/27 10:48:14;;;;;;;7.17;5.27;;;;;;;14.26;44.69;102577.44;4948460;28;20561;-48
2022/04/27 10:50:55;;;;;;;5.17;4.77;;;;;;;14.17;46.27;102573.13;4956125;28;20452;-47
2022/04/27 10:53:24;;;;;;;6.63;5.40;;;;;;;15.03;46.60;102576.41;4956546;28;20435;-42
2022/04/27 10:55:58;;;;;;;4.73;3.90;;;;;;;15.68;44.36;102563.16;4956548;28;20431;-44
2022/04/27 10:58:31;;;;;;;9.40;5.30;;;;;;;16.03;43.40;102573.16;4956318;28;20431;-47
2022/04/27 11:01:27;;;;;;;5.33;4.93;;;;;;;15.51;43.85;102569.75;4955590;28;20467;-45
2022/04/27 11:04:01;;;;;;;4.50;4.17;;;;;;;15.81;43.25;102575.97;4956459;28;20436;-45
2022/04/27 11:06:31;;;;;;;7.73;4.70;;;;;;;15.52;44.81;102576.81;4956184;28;20440;-43
2022/04/27 11:09:17;;;;;;;6.23;4.10;;;;;;;15.19;43.96;102578.13;4956150;28;20436;-48
2022/04/27 11:11:52;;;;;;;9.67;4.50;;;;;;;15.31;46.34;102579.34;4955590;28;20472;-48
2022/04/27 11:14:22;;;;;;;4.93;4.60;;;;;;;15.74;44.10;102575.88;4956116;28;20434;-45
2022/04/27 11:16:51;;;;;;;6.23;5.00;;;;;;;16.18;42.55;102572.31;4956102;28;20443;-44
2022/04/27 11:19:19;;;;;;;4.50;4.20;;;;;;;15.04;43.02;102571.88;4955915;28;20722;-48
2022/04/27 11:21:48;;;;;;;7.83;4.90;;;;;;;15.38;43.29;102575.72;4955317;28;20496;-46
2022/04/27 11:24:16;;;;;;;6.77;5.57;;;;;;;15.55;43.15;102575.59;4956100;28;20440;-44
2022/04/27 11:26:44;;;;;;;7.20;5.43;;;;;;;15.65;44.33;102578.84;4955950;28;20467;-46
2022/04/27 11:29:13;;;;;;;7.67;5.00;;;;;;;15.72;43.48;102577.91;4955944;28;20437;-43
2022/04/27 11:31:42;;;;;;;4.00;3.70;;;;;;;16.58;42.27;102574.44;4954933;28;20471;-42
2022/04/27 11:34:25;;;;;;;5.33;4.43;;;;;;;17.47;40.46;102578.31;4955932;28;20486;-48
2022/04/27 11:36:54;;;;;;;5.20;4.80;;;;;;;17.72;40.22;102574.13;4955959;28;20954;-50
2022/04/27 11:39:23;;;;;;;9.77;5.40;;;;;;;17.19;37.14;102578.31;4955735;28;20431;-45
2022/04/27 11:42:00;;;;;;;13.53;5.03;;;;;;;17.72;39.42;102576.81;4955020;28;20969;-44
2022/04/27 11:44:28;;;;;;;5.60;5.00;;;;;;;16.54;40.61;102589.31;4955521;28;20523;-48
2022/04/27 11:46:56;;;;;;;7.33;5.43;;;;;;;16.24;41.78;102585.84;4947897;28;20440;-44